AirNav   Pilot Hours Calculator
 
 1343 users online  

T00 Chambers County Airport
Anahuac, Texas, USA

GOING TO ANAHUAC?


FAA INFORMATION EFFECTIVE 16 JUNE 2022

Location

FAA Identifier: T00
Lat/Long: 29-46-11.3332N 094-39-48.5535W
29-46.188887N 094-39.809225W
29.7698148,-94.6634871
(estimated)
Elevation: 21.2 ft. / 6.5 m (surveyed)
Variation: 05E (1995)
From city: 1 mile E of ANAHUAC, TX
Time zone: UTC -5 (UTC -6 during Standard Time)
Zip code: 77514

Airport Operations

Airport use: Open to the public
Activation date: 10/1978
Control tower: no
ARTCC: HOUSTON CENTER
FSS: MONTGOMERY COUNTY FLIGHT SERVICE STATION
NOTAMs facility: CXO (NOTAM-D service available)
Attendance: MON-FRI 0800-1700
Wind indicator: lighted
Segmented circle: yes
Lights: DUSK-DAWN. MIRL RWY 12/30 PRESET LOW INTST; TO INCR INTST ACTVT - CTAF.
Beacon: white-green (lighted land airport)
Operates sunset to sunrise.

Airport Communications

CTAF: 122.9
HOUSTON APPROACH: 134.45 [0600-0000]
HOUSTON DEPARTURE: 134.45 [0600-0000]
BLTWY RNAV DP: 134.45
BLUEBELL STAR: 124.225
BORRN RNAV DP: 134.45
CESAN STAR: 121.3
DREMR DP: 134.45
HOODO RNAV DP: 134.45
HUDZY STAR: 120.05
INDIE RNAV DP: 134.45
KARRR RNAV DP: 134.45
LURIC DP: 134.45
MMALT RNAV DP: 134.45
OHIIO STAR: 120.05
PALACIOS DP: 134.45
STRYA DP: 134.45
STYCK DP: 134.45
TKNIQ STAR: 119.625
WAPPL STAR: 120.05
WATFO DP: 134.45
WYLSN RNAV DP: 134.45
WX AWOS-3PT at T78 (19 nm N): 120.775 (936-587-4150)

Airport Services

Fuel available: 100LL JET-A JET-A1+
100LL:FUEL 24 HR SELF-SERVE.
Parking: tiedowns
Bottled oxygen: NONE
Bulk oxygen: NONE

Runway Information

Runway 12/30

Dimensions: 3005 x 60 ft. / 916 x 18 m
Surface: asphalt, in poor condition
EXTSV CRACKING.
Weight bearing capacity: 
Single wheel: 13.0
Runway edge lights: medium intensity
RUNWAY 12  RUNWAY 30
Latitude: 29-46.363987N29-46.053815N
Longitude: 094-39.966058W094-39.522763W
Elevation: 20.4 ft.20.4 ft.
Traffic pattern: leftright
Runway heading: 124 magnetic, 129 true304 magnetic, 309 true
Markings: nonprecision, in good conditionnonprecision, in good condition
Visual slope indicator: 2-light PAPI on left (4.00 degrees glide path)
Touchdown point: yes, no lightsyes, no lights
Obstructions: 45 ft. pole, 882 ft. from runway, 160 ft. left of centerline, 15:1 slope to clear15 ft. road, 530 ft. from runway, 280 ft. left of centerline, 22:1 slope to clear

Runway 17/35

Dimensions: 1900 x 300 ft. / 579 x 91 m
Surface: turf, in good condition
RUNWAY 17  RUNWAY 35
Latitude: 29-46.313965N29-46.000500N
Longitude: 094-39.911733W094-39.911733W
Elevation: 20.0 ft.20.0 ft.
Traffic pattern: leftright
Runway heading: 175 magnetic, 180 true355 magnetic, 000 true
Markings: none, in good conditionnone, in good condition
Touchdown point: yes, no lightsyes, no lights
Obstructions: 60 ft. trees, 890 ft. from runway, 90 ft. left of centerline, 14:1 slope to clear17 ft. road, 230 ft. from runway, 13:1 slope to clear

Airport Ownership and Management from official FAA records

Ownership: Publicly-owned
Owner: CHAMBERS COUNTY
PO BOX 938
ANAHUAC, TX 77514
Phone 409-267-2400
Manager: RONNIE BROWN
PO BOX 938
ANAHUAC, TX 77514
Phone 409-267-2719

Airport Operational Statistics

Aircraft based on the field: 9
Single engine airplanes: 8
Multi engine airplanes: 1
    
Aircraft operations: avg 46/week *
67% local general aviation
33% transient general aviation
* for 12-month period ending 23 April 2020

Additional Remarks

RWY 17/35 SOFT WHEN WET.
RWY 17, PAPI RWY 12 IN RWY 17 APCH, DO NOT LAND BFR XNG RWY 12.
FOR CD CTC HOUSTON APCH AT 281-443-5844 TO CNL IFR CALL 281-443-5888.

Instrument Procedures

NOTE: All procedures below are presented as PDF files. If you need a reader for these files, you should download the free Adobe Reader.

NOT FOR NAVIGATION. Please procure official charts for flight.
FAA instrument procedures published for use from 16 June 2022 at 0901Z to 14 July 2022 at 0900z.

 
STARs - Standard Terminal Arrivals
BLUBELL FOUR   download (300KB)
CESAN FOUR (RNAV)   2 pages: [1] [2] (398KB)
HUDZY FOUR   2 pages: [1] [2] (330KB)
OHIIO FOUR   download (287KB)
TKNIQ THREE (RNAV)   2 pages: [1] [2] (328KB)
TSHRT ONE ARRIVAL   2 pages: [1] [2] (375KB)
WAPPL SIX (RNAV)   2 pages: [1] [2] (376KB)
WAPPL SIX (RNAV), CONT.2   download (281KB)
 
IAPs - Instrument Approach Procedures
RNAV (GPS) RWY 12   download (197KB)
 
Departure Procedures
BLTWY SEVEN (RNAV)   download (153KB)
BORRN FOUR (RNAV)   2 pages: [1] [2] (295KB)
HOODO SEVEN (RNAV)   download (195KB)
INDIE EIGHT (RNAV)   download (180KB)
KARRR SIX (RNAV)   2 pages: [1] [2] (252KB)
LURIC EIGHT (RNAV)   download (201KB)
MMALT FIVE (RNAV)   download (206KB)
PALACIOS TWO   2 pages: [1] [2] (305KB)
STRYA EIGHT (RNAV)   download (191KB)
STYCK EIGHT (RNAV)   download (179KB)
WATFO FIVE (RNAV)   download (159KB)
WYLSN EIGHT (RNAV)   download (164KB)
NOTE: Special Take-Off Minimums/Departure Procedures apply   download (70KB)

Other nearby airports with instrument procedures:

54T - RWJ Airpark (10 nm W)
KHPY - Baytown Airport (15 nm W)
T78 - Liberty Municipal Airport (19 nm N)
T41 - La Porte Municipal Airport (22 nm W)
KEFD - Ellington Airport (28 nm W)
 
Loc | Ops | Rwys | IFR | FBO | Links
Com | Nav | Svcs | Stats | Notes
Area around T00 (Chambers County Airport)
 
Road maps at: MapQuest Bing Google
 
Aerial photo
WARNING: Photo may not be current or correct
Aerial photo of T00 (Chambers County Airport)
Photo taken 04-Mar-2007
on final for runway 30

Do you have a better or more recent aerial photo of Chambers County Airport that you would like to share? If so, please send us your photo.

 
Sectional chart

 
Airport distance calculator
Flying to Chambers County Airport? Find the distance to fly.

From to T00

Sunrise and sunset
Times for 28-Jun-2022
 Local
(UTC-5)
 Zulu
(UTC)
Morning civil twilight05:5410:54
Sunrise06:2211:22
Sunset20:2201:22
Evening civil twilight20:4901:49

Current date and time
Zulu (UTC)  28-Jun-2022 22:38:14
Local (UTC-5)  28-Jun-2022 17:38:14
 
METAR
KT41 
22nm W 
282215Z AUTO 36005KT 10SM BKN060 BKN075 BKN120 30/11 A3000 RMK AO2 T03050105
KEFD 
28nm W 
282154Z 08007KT 10SM SCT070 SCT080 33/21 A2999
KBMT 
29nm NE 
282210Z AUTO 34009KT 10SM SCT075 34/20 A2999 RMK AO2 T03410195
KGLS 
32nm S 
282152Z 09011KT 10SM CLR 33/22 A3001 RMK AO2 SLP161 T03330222
KHOU 
33nm W 
282153Z 03011G17KT 10SM FEW045 SCT060TCU SCT180 BKN250 35/19 A2999 RMK AO2 SLP158 TCU NE-E AND S VCSH NE-E SHRA DSNT NE AND W T03500189
KLVJ 
34nm SW 
282153Z AUTO 09009KT 10SM FEW060 33/21 A3001 RMK AO2 RAB05E15 SLP160 P0000 T03330206
KBPT 
35nm E 
282153Z 10013KT 10SM SCT040 33/22 A2999 RMK AO2 SLP156 T03280217
KIAH 
39nm W 
282153Z 04016G21KT 10SM FEW060 SCT110 BKN250 36/14 A3000 RMK AO2 SLP157 T03610144
K6R3 
39nm NW 
281050Z AUTO 00000KT 10SM CLR 25/23 A3009 RMK AO2 T02500225
TAF
KEFD 
28nm W 
282000Z 2820/3002 02012KT 9999 SCT050 BKN250 QNH3004INS BECMG 2902/2903 VRB06KT 9999 SCT040 OVC140 QNH3003INS BECMG 2911/2912 05012KT 9999 SCT035 BKN150 QNH3006INS BECMG 2917/2918 07012KT 9000 -SHRA FEW095 OVC120 QNH3006INS TEMPO 2918/3000 08015G25KT 8000 -TSRA SCT035 BKN065CB BKN130 BECMG 3000/3001 VRB06KT 9999 NSW SCT025 OVC130 QNH3000INS TX33/2820Z TN24/2911Z
KGLS 
32nm S 
281720Z 2818/2918 04011KT P6SM SCT040 SCT250 FM282000 08010KT P6SM SCT050 BKN250 FM290000 12006KT P6SM SCT050 BKN120 FM290700 07005KT P6SM SCT040 BKN150 FM291100 05007KT P6SM VCSH SCT030 BKN050
KHOU 
33nm W 
282213Z 2822/2918 07012KT P6SM VCSH FEW050 SCT060 BKN250 TEMPO 2822/2823 -SHRA FM290000 10008KT P6SM SCT060 BKN250 FM290300 VRB03KT P6SM SCT060 BKN150 FM291500 07008KT P6SM VCSH SCT040 BKN060
KBPT 
35nm E 
281729Z 2818/2918 04010KT P6SM SCT030 BKN150 FM282200 08010KT P6SM VCTS SCT035CB BKN120 FM290100 VRB05KT P6SM SCT025 BKN200 FM291400 06007KT P6SM SCT030 BKN150
NOTAMs
Click for the latest NOTAMs
NOTAMs are issued by the DoD/FAA and will open in a separate window not controlled by AirNav.

 

 
 

FBO, Fuel Providers, and Aircraft Ground Support

  
 Business Name 
 
 Contact 
 
 Services / Description 
 
Fuel Prices
 
Comments
  
Chambers County Anahuac Airport 409-267-2719
no information available

If you are affiliated with Chambers County Anahuac Airport and would like to show here your services, contact info, web link, logo, and more, click here
100LL Jet A
SS $4.50 $3.80 
 Updated 31-Mar-2022
 
   write
SS=Self service
Update Fuel Prices
 

Would you like to see your business listed on this page?

 If your business provides an interesting product or service to pilots, flight crews, aircraft, or users of the Chambers County Airport, you should consider listing it here.  To start the listing process, click on the button below
 
Add a business
 

Other Pages about Chambers County Airport

www.co.chambers.tx.us/...
 
Update a link
 
Copyright © AirNav, LLC. All rights reserved. Privacy Policy  Contact